Lexington (LEX/KLEX)

Map

Destinations

Information

Location
Lexington, KY
Local Time
16:32 / 4:32 pm
GMT Time
20:32 / 8:32 pm
Gates
B2
No FAA reported delays
METAR KLEX 231954Z 21008KT 10SM BKN015 OVC026 17/14 A2971 RMK AO2 SLP054 T01670139
TAF KLEX 231739Z 2318/2418 17007KT P6SM -RA SCT030 OVC090 FM232000 24013G20KT P6SM SCT009 OVC015 FM232300 24012KT P6SM VCSH OVC012 FM240400 23008KT P6SM SCT035 BKN060 FM240900 22008KT P6SM BKN015 FM241600 24012G23KT P6SM BKN040